sensor_id;sensor_type;location;lat;lon;timestamp;P1;durP1;ratioP1;P2;durP2;ratioP2
66593;SDS011;53450;42.584;23.366;2023-04-25T00:00:17;9.65;;;7.22;;
66593;SDS011;53450;42.584;23.366;2023-04-25T00:03:07;12.65;;;8.23;;
66593;SDS011;53450;42.584;23.366;2023-04-25T00:05:38;11.93;;;9.60;;
66593;SDS011;53450;42.584;23.366;2023-04-25T00:08:04;10.20;;;8.98;;
66593;SDS011;53450;42.584;23.366;2023-04-25T00:10:30;11.07;;;8.20;;
66593;SDS011;53450;42.584;23.366;2023-04-25T00:13:21;13.38;;;9.10;;
66593;SDS011;53450;42.584;23.366;2023-04-25T00:16:12;11.30;;;9.20;;
66593;SDS011;53450;42.584;23.366;2023-04-25T00:18:41;11.95;;;9.45;;
66593;SDS011;53450;42.584;23.366;2023-04-25T00:21:07;18.55;;;9.52;;
66593;SDS011;53450;42.584;23.366;2023-04-25T00:23:33;14.10;;;10.40;;
66593;SDS011;53450;42.584;23.366;2023-04-25T00:26:01;15.43;;;9.75;;
66593;SDS011;53450;42.584;23.366;2023-04-25T00:28:27;12.65;;;9.73;;
66593;SDS011;53450;42.584;23.366;2023-04-25T00:30:53;10.88;;;9.75;;
66593;SDS011;53450;42.584;23.366;2023-04-25T00:33:19;12.27;;;9.38;;
66593;SDS011;53450;42.584;23.366;2023-04-25T00:35:44;12.57;;;9.02;;
66593;SDS011;53450;42.584;23.366;2023-04-25T00:38:10;12.75;;;9.48;;
66593;SDS011;53450;42.584;23.366;2023-04-25T00:40:36;12.50;;;9.02;;
66593;SDS011;53450;42.584;23.366;2023-04-25T00:43:02;8.68;;;7.88;;
66593;SDS011;53450;42.584;23.366;2023-04-25T00:45:28;9.23;;;7.72;;
66593;SDS011;53450;42.584;23.366;2023-04-25T00:47:54;7.78;;;6.78;;
66593;SDS011;53450;42.584;23.366;2023-04-25T00:50:21;10.60;;;7.55;;
66593;SDS011;53450;42.584;23.366;2023-04-25T00:52:46;11.27;;;7.50;;
66593;SDS011;53450;42.584;23.366;2023-04-25T00:55:12;7.75;;;6.95;;
66593;SDS011;53450;42.584;23.366;2023-04-25T00:57:38;6.60;;;5.88;;
66593;SDS011;53450;42.584;23.366;2023-04-25T01:00:05;10.98;;;7.20;;
66593;SDS011;53450;42.584;23.366;2023-04-25T01:02:34;9.95;;;7.38;;
66593;SDS011;53450;42.584;23.366;2023-04-25T01:05:01;10.60;;;7.15;;
66593;SDS011;53450;42.584;23.366;2023-04-25T01:07:27;7.38;;;6.57;;
66593;SDS011;53450;42.584;23.366;2023-04-25T01:09:53;7.05;;;6.35;;
66593;SDS011;53450;42.584;23.366;2023-04-25T01:12:18;7.55;;;6.72;;
66593;SDS011;53450;42.584;23.366;2023-04-25T01:14:44;7.15;;;6.45;;
66593;SDS011;53450;42.584;23.366;2023-04-25T01:17:11;7.78;;;7.03;;
66593;SDS011;53450;42.584;23.366;2023-04-25T01:19:39;10.60;;;7.53;;
66593;SDS011;53450;42.584;23.366;2023-04-25T01:22:04;9.27;;;7.28;;
66593;SDS011;53450;42.584;23.366;2023-04-25T01:24:31;8.38;;;7.47;;
66593;SDS011;53450;42.584;23.366;2023-04-25T01:26:58;7.30;;;6.60;;
66593;SDS011;53450;42.584;23.366;2023-04-25T01:29:26;6.47;;;5.88;;
66593;SDS011;53450;42.584;23.366;2023-04-25T01:31:53;8.95;;;6.43;;
66593;SDS011;53450;42.584;23.366;2023-04-25T01:34:21;6.68;;;5.80;;
66593;SDS011;53450;42.584;23.366;2023-04-25T01:36:48;10.40;;;5.95;;
66593;SDS011;53450;42.584;23.366;2023-04-25T01:39:15;14.73;;;9.80;;
66593;SDS011;53450;42.584;23.366;2023-04-25T01:41:41;11.73;;;8.77;;
66593;SDS011;53450;42.584;23.366;2023-04-25T01:44:06;6.60;;;5.90;;
66593;SDS011;53450;42.584;23.366;2023-04-25T01:46:33;5.35;;;4.93;;
66593;SDS011;53450;42.584;23.366;2023-04-25T01:48:59;6.68;;;4.10;;
66593;SDS011;53450;42.584;23.366;2023-04-25T01:51:25;5.00;;;3.88;;
66593;SDS011;53450;42.584;23.366;2023-04-25T01:53:51;4.28;;;3.38;;
66593;SDS011;53450;42.584;23.366;2023-04-25T01:56:17;4.72;;;4.32;;
66593;SDS011;53450;42.584;23.366;2023-04-25T01:58:43;6.00;;;5.40;;
66593;SDS011;53450;42.584;23.366;2023-04-25T02:01:32;6.50;;;5.90;;
66593;SDS011;53450;42.584;23.366;2023-04-25T02:04:23;6.85;;;6.25;;
66593;SDS011;53450;42.584;23.366;2023-04-25T02:06:49;7.35;;;5.85;;
66593;SDS011;53450;42.584;23.366;2023-04-25T02:09:15;5.20;;;3.20;;
66593;SDS011;53450;42.584;23.366;2023-04-25T02:11:45;3.25;;;2.95;;
66593;SDS011;53450;42.584;23.366;2023-04-25T02:14:26;3.83;;;3.50;;
66593;SDS011;53450;42.584;23.366;2023-04-25T02:16:58;3.50;;;3.20;;
66593;SDS011;53450;42.584;23.366;2023-04-25T02:19:25;3.78;;;3.50;;
66593;SDS011;53450;42.584;23.366;2023-04-25T02:21:50;5.93;;;4.10;;
66593;SDS011;53450;42.584;23.366;2023-04-25T02:24:16;7.20;;;4.93;;
66593;SDS011;53450;42.584;23.366;2023-04-25T02:26:41;6.63;;;5.97;;
66593;SDS011;53450;42.584;23.366;2023-04-25T02:29:08;6.45;;;5.78;;
66593;SDS011;53450;42.584;23.366;2023-04-25T02:31:34;9.20;;;5.97;;
66593;SDS011;53450;42.584;23.366;2023-04-25T02:34:00;6.57;;;5.30;;
66593;SDS011;53450;42.584;23.366;2023-04-25T02:36:26;7.45;;;5.85;;
66593;SDS011;53450;42.584;23.366;2023-04-25T02:38:52;5.85;;;4.70;;
66593;SDS011;53450;42.584;23.366;2023-04-25T02:41:19;7.57;;;5.90;;
66593;SDS011;53450;42.584;23.366;2023-04-25T02:43:46;8.00;;;6.75;;
66593;SDS011;53450;42.584;23.366;2023-04-25T02:46:12;6.65;;;6.05;;
66593;SDS011;53450;42.584;23.366;2023-04-25T02:48:38;7.55;;;6.60;;
66593;SDS011;53450;42.584;23.366;2023-04-25T02:51:04;8.75;;;5.50;;
66593;SDS011;53450;42.584;23.366;2023-04-25T02:53:30;21.92;;;10.93;;
66593;SDS011;53450;42.584;23.366;2023-04-25T02:55:55;20.10;;;11.02;;
66593;SDS011;53450;42.584;23.366;2023-04-25T02:58:23;6.55;;;6.00;;
66593;SDS011;53450;42.584;23.366;2023-04-25T03:00:51;6.25;;;5.65;;
66593;SDS011;53450;42.584;23.366;2023-04-25T03:03:17;8.48;;;6.97;;
66593;SDS011;53450;42.584;23.366;2023-04-25T03:05:48;7.93;;;6.32;;
66593;SDS011;53450;42.584;23.366;2023-04-25T03:08:18;6.68;;;5.93;;
66593;SDS011;53450;42.584;23.366;2023-04-25T03:10:45;6.68;;;5.97;;
66593;SDS011;53450;42.584;23.366;2023-04-25T03:13:12;5.25;;;4.80;;
66593;SDS011;53450;42.584;23.366;2023-04-25T03:15:40;4.38;;;3.97;;
66593;SDS011;53450;42.584;23.366;2023-04-25T03:18:06;4.80;;;4.40;;
66593;SDS011;53450;42.584;23.366;2023-04-25T03:20:32;7.90;;;4.13;;
66593;SDS011;53450;42.584;23.366;2023-04-25T03:22:57;3.00;;;2.80;;
66593;SDS011;53450;42.584;23.366;2023-04-25T03:25:23;4.78;;;4.28;;
66593;SDS011;53450;42.584;23.366;2023-04-25T03:27:49;3.63;;;3.33;;
66593;SDS011;53450;42.584;23.366;2023-04-25T03:30:15;2.08;;;1.98;;
66593;SDS011;53450;42.584;23.366;2023-04-25T03:32:42;5.50;;;3.47;;
66593;SDS011;53450;42.584;23.366;2023-04-25T03:35:08;4.20;;;3.80;;
66593;SDS011;53450;42.584;23.366;2023-04-25T03:37:34;4.63;;;3.78;;
66593;SDS011;53450;42.584;23.366;2023-04-25T03:40:00;4.85;;;4.45;;
66593;SDS011;53450;42.584;23.366;2023-04-25T03:42:44;4.60;;;4.22;;
66593;SDS011;53450;42.584;23.366;2023-04-25T03:45:10;5.60;;;4.57;;
66593;SDS011;53450;42.584;23.366;2023-04-25T03:47:36;4.65;;;4.20;;
66593;SDS011;53450;42.584;23.366;2023-04-25T03:50:01;4.97;;;4.55;;
66593;SDS011;53450;42.584;23.366;2023-04-25T03:52:28;5.55;;;4.07;;
66593;SDS011;53450;42.584;23.366;2023-04-25T03:54:54;3.95;;;3.55;;
66593;SDS011;53450;42.584;23.366;2023-04-25T03:57:22;3.75;;;3.45;;
66593;SDS011;53450;42.584;23.366;2023-04-25T03:59:48;3.92;;;3.60;;
66593;SDS011;53450;42.584;23.366;2023-04-25T04:02:14;3.58;;;3.28;;
66593;SDS011;53450;42.584;23.366;2023-04-25T04:04:40;3.60;;;3.30;;
66593;SDS011;53450;42.584;23.366;2023-04-25T04:07:06;3.97;;;3.67;;
66593;SDS011;53450;42.584;23.366;2023-04-25T04:09:38;4.18;;;3.20;;
66593;SDS011;53450;42.584;23.366;2023-04-25T04:12:09;4.18;;;3.85;;
66593;SDS011;53450;42.584;23.366;2023-04-25T04:15:00;4.43;;;4.03;;
66593;SDS011;53450;42.584;23.366;2023-04-25T04:17:27;4.22;;;3.83;;
66593;SDS011;53450;42.584;23.366;2023-04-25T04:19:53;3.45;;;3.25;;
66593;SDS011;53450;42.584;23.366;2023-04-25T04:22:19;4.05;;;3.50;;
66593;SDS011;53450;42.584;23.366;2023-04-25T04:24:46;4.90;;;4.50;;
66593;SDS011;53450;42.584;23.366;2023-04-25T04:27:16;4.20;;;3.80;;
66593;SDS011;53450;42.584;23.366;2023-04-25T04:29:52;5.95;;;4.18;;
66593;SDS011;53450;42.584;23.366;2023-04-25T04:32:36;3.63;;;3.33;;
66593;SDS011;53450;42.584;23.366;2023-04-25T04:35:03;3.50;;;3.20;;
66593;SDS011;53450;42.584;23.366;2023-04-25T04:37:31;9.30;;;7.28;;
66593;SDS011;53450;42.584;23.366;2023-04-25T04:39:59;4.18;;;3.78;;
66593;SDS011;53450;42.584;23.366;2023-04-25T04:42:44;5.72;;;5.22;;
66593;SDS011;53450;42.584;23.366;2023-04-25T04:45:36;7.05;;;6.35;;
66593;SDS011;53450;42.584;23.366;2023-04-25T04:48:16;7.97;;;7.03;;
66593;SDS011;53450;42.584;23.366;2023-04-25T04:51:06;7.10;;;6.43;;
66593;SDS011;53450;42.584;23.366;2023-04-25T04:53:52;6.30;;;5.20;;
66593;SDS011;53450;42.584;23.366;2023-04-25T04:56:42;6.43;;;5.40;;
66593;SDS011;53450;42.584;23.366;2023-04-25T04:59:33;6.25;;;4.50;;
66593;SDS011;53450;42.584;23.366;2023-04-25T05:02:15;5.53;;;5.03;;
66593;SDS011;53450;42.584;23.366;2023-04-25T05:05:00;4.70;;;4.30;;
66593;SDS011;53450;42.584;23.366;2023-04-25T05:07:45;5.63;;;4.90;;
66593;SDS011;53450;42.584;23.366;2023-04-25T05:10:40;4.28;;;3.88;;
66593;SDS011;53450;42.584;23.366;2023-04-25T05:13:22;4.95;;;4.40;;
66593;SDS011;53450;42.584;23.366;2023-04-25T05:16:17;4.25;;;3.85;;
66593;SDS011;53450;42.584;23.366;2023-04-25T05:19:18;4.43;;;4.03;;
66593;SDS011;53450;42.584;23.366;2023-04-25T05:22:01;4.70;;;4.30;;
66593;SDS011;53450;42.584;23.366;2023-04-25T05:24:41;6.55;;;4.57;;
66593;SDS011;53450;42.584;23.366;2023-04-25T05:27:10;6.38;;;4.47;;
66593;SDS011;53450;42.584;23.366;2023-04-25T05:29:49;6.72;;;5.85;;
66593;SDS011;53450;42.584;23.366;2023-04-25T05:32:32;12.23;;;6.72;;
66593;SDS011;53450;42.584;23.366;2023-04-25T05:34:59;11.15;;;8.38;;
66593;SDS011;53450;42.584;23.366;2023-04-25T05:37:28;7.60;;;6.80;;
66593;SDS011;53450;42.584;23.366;2023-04-25T05:40:08;6.05;;;5.45;;
66593;SDS011;53450;42.584;23.366;2023-04-25T05:42:58;11.88;;;9.13;;
66593;SDS011;53450;42.584;23.366;2023-04-25T05:45:41;17.20;;;13.88;;
66593;SDS011;53450;42.584;23.366;2023-04-25T05:48:29;20.08;;;13.63;;
66593;SDS011;53450;42.584;23.366;2023-04-25T05:51:14;19.30;;;14.20;;
66593;SDS011;53450;42.584;23.366;2023-04-25T05:54:03;20.30;;;14.65;;
66593;SDS011;53450;42.584;23.366;2023-04-25T05:56:31;19.58;;;14.52;;
66593;SDS011;53450;42.584;23.366;2023-04-25T05:58:56;18.13;;;13.55;;
66593;SDS011;53450;42.584;23.366;2023-04-25T06:01:22;19.13;;;14.13;;
66593;SDS011;53450;42.584;23.366;2023-04-25T06:03:49;19.70;;;13.75;;
66593;SDS011;53450;42.584;23.366;2023-04-25T06:06:16;13.68;;;11.55;;
66593;SDS011;53450;42.584;23.366;2023-04-25T06:08:42;16.25;;;12.40;;
66593;SDS011;53450;42.584;23.366;2023-04-25T06:11:10;14.88;;;10.60;;
66593;SDS011;53450;42.584;23.366;2023-04-25T06:13:36;16.35;;;10.57;;
66593;SDS011;53450;42.584;23.366;2023-04-25T06:16:02;14.73;;;11.43;;
66593;SDS011;53450;42.584;23.366;2023-04-25T06:18:28;14.77;;;9.93;;
66593;SDS011;53450;42.584;23.366;2023-04-25T06:20:53;14.98;;;10.75;;
66593;SDS011;53450;42.584;23.366;2023-04-25T06:23:22;12.43;;;8.38;;
66593;SDS011;53450;42.584;23.366;2023-04-25T06:25:51;10.23;;;8.52;;
66593;SDS011;53450;42.584;23.366;2023-04-25T06:28:18;22.90;;;11.50;;
66593;SDS011;53450;42.584;23.366;2023-04-25T06:30:44;14.85;;;9.27;;
66593;SDS011;53450;42.584;23.366;2023-04-25T06:33:13;11.05;;;8.40;;
66593;SDS011;53450;42.584;23.366;2023-04-25T06:35:39;7.68;;;6.88;;
66593;SDS011;53450;42.584;23.366;2023-04-25T06:38:11;14.55;;;9.13;;
66593;SDS011;53450;42.584;23.366;2023-04-25T06:40:38;8.93;;;8.02;;
66593;SDS011;53450;42.584;23.366;2023-04-25T06:43:06;8.10;;;7.30;;
66593;SDS011;53450;42.584;23.366;2023-04-25T06:45:52;6.95;;;6.25;;
66593;SDS011;53450;42.584;23.366;2023-04-25T06:48:19;10.48;;;8.50;;
66593;SDS011;53450;42.584;23.366;2023-04-25T06:50:45;8.88;;;7.93;;
66593;SDS011;53450;42.584;23.366;2023-04-25T06:53:11;11.75;;;9.82;;
66593;SDS011;53450;42.584;23.366;2023-04-25T06:55:38;9.80;;;8.43;;
66593;SDS011;53450;42.584;23.366;2023-04-25T06:58:14;11.82;;;8.43;;
66593;SDS011;53450;42.584;23.366;2023-04-25T07:00:52;9.52;;;6.57;;
66593;SDS011;53450;42.584;23.366;2023-04-25T07:03:21;8.88;;;6.47;;
66593;SDS011;53450;42.584;23.366;2023-04-25T07:05:48;7.68;;;6.78;;
66593;SDS011;53450;42.584;23.366;2023-04-25T07:08:13;15.05;;;5.05;;
66593;SDS011;53450;42.584;23.366;2023-04-25T07:10:42;7.05;;;4.85;;
66593;SDS011;53450;42.584;23.366;2023-04-25T07:13:07;7.18;;;5.55;;
66593;SDS011;53450;42.584;23.366;2023-04-25T07:15:33;6.15;;;5.47;;
66593;SDS011;53450;42.584;23.366;2023-04-25T07:18:00;5.72;;;5.22;;
66593;SDS011;53450;42.584;23.366;2023-04-25T07:20:26;4.88;;;4.47;;
66593;SDS011;53450;42.584;23.366;2023-04-25T07:22:53;5.45;;;4.88;;
66593;SDS011;53450;42.584;23.366;2023-04-25T07:25:19;3.50;;;3.00;;
66593;SDS011;53450;42.584;23.366;2023-04-25T07:27:45;4.88;;;2.67;;
66593;SDS011;53450;42.584;23.366;2023-04-25T07:30:16;2.83;;;2.63;;
66593;SDS011;53450;42.584;23.366;2023-04-25T07:32:42;4.80;;;3.00;;
66593;SDS011;53450;42.584;23.366;2023-04-25T07:35:08;4.13;;;3.67;;
66593;SDS011;53450;42.584;23.366;2023-04-25T07:37:34;6.35;;;3.45;;
66593;SDS011;53450;42.584;23.366;2023-04-25T07:40:16;4.18;;;3.20;;
66593;SDS011;53450;42.584;23.366;2023-04-25T07:42:49;4.05;;;3.60;;
66593;SDS011;53450;42.584;23.366;2023-04-25T07:45:20;2.40;;;2.20;;
66593;SDS011;53450;42.584;23.366;2023-04-25T07:47:46;2.88;;;2.60;;
66593;SDS011;53450;42.584;23.366;2023-04-25T07:50:12;3.92;;;2.40;;
66593;SDS011;53450;42.584;23.366;2023-04-25T07:52:38;19.95;;;9.23;;
66593;SDS011;53450;42.584;23.366;2023-04-25T07:55:32;5.18;;;3.45;;
66593;SDS011;53450;42.584;23.366;2023-04-25T07:58:07;10.70;;;3.90;;
66593;SDS011;53450;42.584;23.366;2023-04-25T08:00:36;2.95;;;2.65;;
66593;SDS011;53450;42.584;23.366;2023-04-25T08:03:20;3.35;;;2.80;;
66593;SDS011;53450;42.584;23.366;2023-04-25T08:05:47;2.50;;;2.30;;
66593;SDS011;53450;42.584;23.366;2023-04-25T08:08:13;2.60;;;2.13;;
66593;SDS011;53450;42.584;23.366;2023-04-25T08:10:40;2.13;;;2.03;;
66593;SDS011;53450;42.584;23.366;2023-04-25T08:13:06;3.55;;;3.17;;
66593;SDS011;53450;42.584;23.366;2023-04-25T08:15:32;2.33;;;2.03;;
66593;SDS011;53450;42.584;23.366;2023-04-25T08:17:58;2.20;;;2.05;;
66593;SDS011;53450;42.584;23.366;2023-04-25T08:20:24;1.90;;;1.80;;
66593;SDS011;53450;42.584;23.366;2023-04-25T08:22:53;4.68;;;4.25;;
66593;SDS011;53450;42.584;23.366;2023-04-25T08:25:41;2.25;;;2.05;;
66593;SDS011;53450;42.584;23.366;2023-04-25T08:28:10;1.80;;;1.70;;
66593;SDS011;53450;42.584;23.366;2023-04-25T08:30:36;2.20;;;2.00;;
66593;SDS011;53450;42.584;23.366;2023-04-25T08:33:03;4.15;;;2.00;;
66593;SDS011;53450;42.584;23.366;2023-04-25T08:36:01;2.28;;;2.10;;
66593;SDS011;53450;42.584;23.366;2023-04-25T08:38:28;4.15;;;2.20;;
66593;SDS011;53450;42.584;23.366;2023-04-25T08:40:54;2.30;;;2.10;;
66593;SDS011;53450;42.584;23.366;2023-04-25T08:43:21;2.13;;;1.92;;
66593;SDS011;53450;42.584;23.366;2023-04-25T08:45:48;1.33;;;1.30;;
66593;SDS011;53450;42.584;23.366;2023-04-25T08:48:29;4.13;;;1.58;;
66593;SDS011;53450;42.584;23.366;2023-04-25T08:50:58;3.45;;;1.50;;
66593;SDS011;53450;42.584;23.366;2023-04-25T08:53:31;1.98;;;1.60;;
66593;SDS011;53450;42.584;23.366;2023-04-25T08:56:00;3.05;;;1.67;;
66593;SDS011;53450;42.584;23.366;2023-04-25T08:58:33;2.15;;;1.70;;
66593;SDS011;53450;42.584;23.366;2023-04-25T09:01:00;1.70;;;1.60;;
66593;SDS011;53450;42.584;23.366;2023-04-25T09:03:28;3.60;;;1.90;;
66593;SDS011;53450;42.584;23.366;2023-04-25T09:05:55;1.83;;;1.73;;
66593;SDS011;53450;42.584;23.366;2023-04-25T09:08:21;1.58;;;1.48;;
66593;SDS011;53450;42.584;23.366;2023-04-25T09:10:47;3.22;;;2.08;;
66593;SDS011;53450;42.584;23.366;2023-04-25T09:13:13;1.50;;;1.40;;
66593;SDS011;53450;42.584;23.366;2023-04-25T09:16:12;1.60;;;1.50;;
66593;SDS011;53450;42.584;23.366;2023-04-25T09:19:00;6.47;;;2.80;;
66593;SDS011;53450;42.584;23.366;2023-04-25T09:21:27;2.85;;;2.20;;
66593;SDS011;53450;42.584;23.366;2023-04-25T09:23:53;1.80;;;1.70;;
66593;SDS011;53450;42.584;23.366;2023-04-25T09:26:19;1.90;;;1.80;;
66593;SDS011;53450;42.584;23.366;2023-04-25T09:28:46;4.38;;;1.70;;
66593;SDS011;53450;42.584;23.366;2023-04-25T09:31:24;7.32;;;5.78;;
66593;SDS011;53450;42.584;23.366;2023-04-25T09:33:58;12.63;;;5.80;;
66593;SDS011;53450;42.584;23.366;2023-04-25T09:36:26;6.95;;;5.85;;
66593;SDS011;53450;42.584;23.366;2023-04-25T09:39:01;9.05;;;6.28;;
66593;SDS011;53450;42.584;23.366;2023-04-25T09:41:30;12.18;;;6.70;;
66593;SDS011;53450;42.584;23.366;2023-04-25T09:44:01;7.00;;;4.65;;
66593;SDS011;53450;42.584;23.366;2023-04-25T09:46:46;7.18;;;5.28;;
66593;SDS011;53450;42.584;23.366;2023-04-25T09:49:20;5.53;;;4.93;;
66593;SDS011;53450;42.584;23.366;2023-04-25T09:52:02;7.18;;;4.90;;
66593;SDS011;53450;42.584;23.366;2023-04-25T09:54:35;6.93;;;5.50;;
66593;SDS011;53450;42.584;23.366;2023-04-25T09:57:29;8.98;;;5.22;;
66593;SDS011;53450;42.584;23.366;2023-04-25T09:59:56;9.38;;;4.50;;
66593;SDS011;53450;42.584;23.366;2023-04-25T10:02:24;6.03;;;2.40;;
66593;SDS011;53450;42.584;23.366;2023-04-25T10:04:55;4.65;;;2.78;;
66593;SDS011;53450;42.584;23.366;2023-04-25T10:07:26;5.32;;;3.40;;
66593;SDS011;53450;42.584;23.366;2023-04-25T10:09:59;6.68;;;2.50;;
66593;SDS011;53450;42.584;23.366;2023-04-25T10:12:53;6.22;;;2.60;;
66593;SDS011;53450;42.584;23.366;2023-04-25T10:15:20;4.90;;;2.40;;
66593;SDS011;53450;42.584;23.366;2023-04-25T10:17:47;6.28;;;2.88;;
66593;SDS011;53450;42.584;23.366;2023-04-25T10:20:14;5.95;;;4.30;;
66593;SDS011;53450;42.584;23.366;2023-04-25T10:22:41;3.03;;;2.72;;
66593;SDS011;53450;42.584;23.366;2023-04-25T10:25:09;1.42;;;1.33;;
66593;SDS011;53450;42.584;23.366;2023-04-25T10:27:35;1.45;;;1.35;;
66593;SDS011;53450;42.584;23.366;2023-04-25T10:32:35;3.78;;;1.70;;
66593;SDS011;53450;42.584;23.366;2023-04-25T10:40:25;5.60;;;2.05;;
66593;SDS011;53450;42.584;23.366;2023-04-25T10:42:54;1.60;;;1.50;;
66593;SDS011;53450;42.584;23.366;2023-04-25T10:45:21;3.97;;;2.42;;
66593;SDS011;53450;42.584;23.366;2023-04-25T10:47:47;6.30;;;3.03;;
66593;SDS011;53450;42.584;23.366;2023-04-25T10:50:16;1.13;;;1.10;;
66593;SDS011;53450;42.584;23.366;2023-04-25T10:52:42;0.82;;;0.82;;
66593;SDS011;53450;42.584;23.366;2023-04-25T10:55:08;0.82;;;0.70;;
66593;SDS011;53450;42.584;23.366;2023-04-25T10:57:38;1.25;;;1.15;;
66593;SDS011;53450;42.584;23.366;2023-04-25T11:00:09;4.32;;;0.50;;
66593;SDS011;53450;42.584;23.366;2023-04-25T11:02:40;2.47;;;1.10;;
66593;SDS011;53450;42.584;23.366;2023-04-25T11:05:08;1.48;;;1.10;;
66593;SDS011;53450;42.584;23.366;2023-04-25T11:07:39;1.90;;;1.80;;
66593;SDS011;53450;42.584;23.366;2023-04-25T11:10:39;7.15;;;2.20;;
66593;SDS011;53450;42.584;23.366;2023-04-25T11:13:06;7.50;;;3.42;;
66593;SDS011;53450;42.584;23.366;2023-04-25T11:15:32;4.30;;;3.90;;
66593;SDS011;53450;42.584;23.366;2023-04-25T11:17:57;3.55;;;3.25;;
66593;SDS011;53450;42.584;23.366;2023-04-25T11:20:24;23.15;;;5.85;;
66593;SDS011;53450;42.584;23.366;2023-04-25T11:22:51;3.55;;;2.30;;
66593;SDS011;53450;42.584;23.366;2023-04-25T11:25:17;1.90;;;1.80;;
66593;SDS011;53450;42.584;23.366;2023-04-25T11:27:49;1.00;;;1.00;;
66593;SDS011;53450;42.584;23.366;2023-04-25T11:30:18;0.75;;;0.75;;
66593;SDS011;53450;42.584;23.366;2023-04-25T11:32:45;1.05;;;0.60;;
66593;SDS011;53450;42.584;23.366;2023-04-25T11:35:12;1.75;;;0.50;;
66593;SDS011;53450;42.584;23.366;2023-04-25T11:37:39;0.80;;;0.80;;
66593;SDS011;53450;42.584;23.366;2023-04-25T11:40:05;2.88;;;2.22;;
66593;SDS011;53450;42.584;23.366;2023-04-25T11:42:33;1.38;;;1.27;;
66593;SDS011;53450;42.584;23.366;2023-04-25T11:44:59;1.23;;;1.13;;
66593;SDS011;53450;42.584;23.366;2023-04-25T11:47:31;1.50;;;1.02;;
66593;SDS011;53450;42.584;23.366;2023-04-25T11:49:58;1.33;;;1.23;;
66593;SDS011;53450;42.584;23.366;2023-04-25T11:52:38;10.70;;;5.95;;
66593;SDS011;53450;42.584;23.366;2023-04-25T11:55:08;4.10;;;2.53;;
66593;SDS011;53450;42.584;23.366;2023-04-25T11:57:35;4.97;;;2.30;;
66593;SDS011;53450;42.584;23.366;2023-04-25T12:00:11;4.00;;;2.05;;
66593;SDS011;53450;42.584;23.366;2023-04-25T12:05:13;6.03;;;4.88;;
66593;SDS011;53450;42.584;23.366;2023-04-25T12:07:41;2.15;;;1.20;;
66593;SDS011;53450;42.584;23.366;2023-04-25T12:10:11;16.45;;;8.65;;
66593;SDS011;53450;42.584;23.366;2023-04-25T12:12:41;24.08;;;11.75;;
66593;SDS011;53450;42.584;23.366;2023-04-25T12:15:15;1.90;;;1.50;;
66593;SDS011;53450;42.584;23.366;2023-04-25T12:17:45;3.50;;;1.50;;
66593;SDS011;53450;42.584;23.366;2023-04-25T12:20:12;3.40;;;1.50;;
66593;SDS011;53450;42.584;23.366;2023-04-25T12:22:41;3.70;;;2.20;;
66593;SDS011;53450;42.584;23.366;2023-04-25T12:25:11;1.63;;;1.50;;
66593;SDS011;53450;42.584;23.366;2023-04-25T12:27:38;1.35;;;1.30;;
66593;SDS011;53450;42.584;23.366;2023-04-25T12:30:07;2.00;;;1.30;;
66593;SDS011;53450;42.584;23.366;2023-04-25T12:32:33;1.63;;;1.52;;
66593;SDS011;53450;42.584;23.366;2023-04-25T12:34:59;2.05;;;1.20;;
66593;SDS011;53450;42.584;23.366;2023-04-25T12:37:25;2.10;;;1.90;;
66593;SDS011;53450;42.584;23.366;2023-04-25T12:39:50;6.03;;;4.00;;
66593;SDS011;53450;42.584;23.366;2023-04-25T12:42:16;6.10;;;3.30;;
66593;SDS011;53450;42.584;23.366;2023-04-25T12:44:42;5.10;;;2.40;;
66593;SDS011;53450;42.584;23.366;2023-04-25T12:47:07;2.75;;;2.38;;
66593;SDS011;53450;42.584;23.366;2023-04-25T12:49:33;5.20;;;2.20;;
66593;SDS011;53450;42.584;23.366;2023-04-25T12:51:59;12.82;;;1.40;;
66593;SDS011;53450;42.584;23.366;2023-04-25T12:54:24;15.75;;;3.00;;
66593;SDS011;53450;42.584;23.366;2023-04-25T12:56:51;4.40;;;1.50;;
66593;SDS011;53450;42.584;23.366;2023-04-25T12:59:41;5.03;;;2.37;;
66593;SDS011;53450;42.584;23.366;2023-04-25T13:02:32;4.78;;;1.70;;
66593;SDS011;53450;42.584;23.366;2023-04-25T13:04:58;4.55;;;2.65;;
66593;SDS011;53450;42.584;23.366;2023-04-25T13:07:24;7.55;;;2.15;;
66593;SDS011;53450;42.584;23.366;2023-04-25T13:09:50;2.95;;;1.92;;
66593;SDS011;53450;42.584;23.366;2023-04-25T13:12:15;3.55;;;2.22;;
66593;SDS011;53450;42.584;23.366;2023-04-25T13:14:41;10.63;;;2.75;;
66593;SDS011;53450;42.584;23.366;2023-04-25T13:17:06;2.13;;;1.60;;
66593;SDS011;53450;42.584;23.366;2023-04-25T13:22:04;2.85;;;1.88;;
66593;SDS011;53450;42.584;23.366;2023-04-25T13:24:29;4.18;;;2.08;;
66593;SDS011;53450;42.584;23.366;2023-04-25T13:26:55;2.15;;;1.80;;
66593;SDS011;53450;42.584;23.366;2023-04-25T13:29:20;3.97;;;2.40;;
66593;SDS011;53450;42.584;23.366;2023-04-25T13:31:46;1.80;;;1.70;;
66593;SDS011;53450;42.584;23.366;2023-04-25T13:34:12;4.70;;;2.33;;
66593;SDS011;53450;42.584;23.366;2023-04-25T13:36:38;4.38;;;3.10;;
66593;SDS011;53450;42.584;23.366;2023-04-25T13:39:03;3.97;;;2.58;;
66593;SDS011;53450;42.584;23.366;2023-04-25T13:41:32;8.80;;;6.50;;
66593;SDS011;53450;42.584;23.366;2023-04-25T13:43:57;3.30;;;1.60;;
66593;SDS011;53450;42.584;23.366;2023-04-25T13:46:23;4.00;;;1.40;;
66593;SDS011;53450;42.584;23.366;2023-04-25T13:48:49;2.97;;;1.60;;
66593;SDS011;53450;42.584;23.366;2023-04-25T13:51:15;6.38;;;2.72;;
66593;SDS011;53450;42.584;23.366;2023-04-25T13:53:42;3.40;;;1.83;;
66593;SDS011;53450;42.584;23.366;2023-04-25T13:56:08;6.22;;;4.38;;
66593;SDS011;53450;42.584;23.366;2023-04-25T13:58:34;4.32;;;3.20;;
66593;SDS011;53450;42.584;23.366;2023-04-25T14:00:59;2.88;;;2.53;;
66593;SDS011;53450;42.584;23.366;2023-04-25T14:03:25;8.10;;;4.88;;
66593;SDS011;53450;42.584;23.366;2023-04-25T14:05:51;6.63;;;4.40;;
66593;SDS011;53450;42.584;23.366;2023-04-25T14:08:16;11.75;;;7.65;;
66593;SDS011;53450;42.584;23.366;2023-04-25T14:10:42;15.20;;;9.18;;
66593;SDS011;53450;42.584;23.366;2023-04-25T14:13:07;8.50;;;6.47;;
66593;SDS011;53450;42.584;23.366;2023-04-25T14:15:33;5.63;;;4.93;;
66593;SDS011;53450;42.584;23.366;2023-04-25T14:17:59;4.78;;;4.22;;
66593;SDS011;53450;42.584;23.366;2023-04-25T14:20:50;2.58;;;0.85;;
66593;SDS011;53450;42.584;23.366;2023-04-25T14:23:16;4.25;;;0.95;;
66593;SDS011;53450;42.584;23.366;2023-04-25T14:25:42;0.50;;;0.50;;
66593;SDS011;53450;42.584;23.366;2023-04-25T14:28:09;0.40;;;0.40;;
66593;SDS011;53450;42.584;23.366;2023-04-25T14:30:35;0.90;;;0.90;;
66593;SDS011;53450;42.584;23.366;2023-04-25T14:33:01;0.77;;;0.77;;
66593;SDS011;53450;42.584;23.366;2023-04-25T14:35:26;0.60;;;0.60;;
66593;SDS011;53450;42.584;23.366;2023-04-25T14:37:52;0.60;;;0.60;;
66593;SDS011;53450;42.584;23.366;2023-04-25T14:40:18;0.50;;;0.50;;
66593;SDS011;53450;42.584;23.366;2023-04-25T14:42:47;1.88;;;0.80;;
66593;SDS011;53450;42.584;23.366;2023-04-25T14:45:12;0.70;;;0.70;;
66593;SDS011;53450;42.584;23.366;2023-04-25T14:47:39;0.82;;;0.80;;
66593;SDS011;53450;42.584;23.366;2023-04-25T14:50:06;0.70;;;0.70;;
66593;SDS011;53450;42.584;23.366;2023-04-25T18:55:00;15.52;;;11.95;;
66593;SDS011;53450;42.584;23.366;2023-04-25T18:57:26;9.52;;;5.32;;
66593;SDS011;53450;42.584;23.366;2023-04-25T18:59:52;9.98;;;6.60;;
66593;SDS011;53450;42.584;23.366;2023-04-25T19:02:18;8.32;;;4.60;;